Time;durP1;ratioP1;P1;durP2;ratioP2;P2;SDS_P1;SDS_P2;PMS_P1;PMS_P2;Temp;Humidity;BMP_temperature;BMP_pressure;BME280_temperature;BME280_humidity;BME280_pressure;Samples;Min_cycle;Max_cycle;Signal;HPM_P1;HPM_P2
2023/03/08 00:00:33;;;;;;;5.18;1.50;;;-0.50;99.90;;;;;;5046168;28;20045;-73
2023/03/08 00:03:00;;;;;;;3.85;1.13;;;0.30;99.90;;;;;;5065052;28;20090;-73
2023/03/08 00:05:28;;;;;;;4.72;1.50;;;-0.50;99.90;;;;;;5037733;28;20041;-74
2023/03/08 00:07:54;;;;;;;4.70;1.30;;;0.00;99.90;;;;;;5026300;28;20048;-73
2023/03/08 00:10:20;;;;;;;4.07;1.17;;;-0.50;99.90;;;;;;5043200;28;22677;-73
2023/03/08 00:12:46;;;;;;;4.57;1.35;;;-0.10;99.90;;;;;;5036716;28;20052;-73
2023/03/08 00:15:12;;;;;;;4.13;1.15;;;-0.30;99.90;;;;;;5036031;28;20118;-73
2023/03/08 00:17:38;;;;;;;2.83;1.23;;;0.30;99.90;;;;;;5035932;28;20040;-70
2023/03/08 00:20:06;;;;;;;5.97;1.30;;;-0.60;99.90;;;;;;5040247;28;20037;-73
2023/03/08 00:22:39;;;;;;;4.70;1.35;;;-0.60;99.90;;;;;;5058060;28;20051;-71
2023/03/08 00:25:07;;;;;;;3.90;1.10;;;-0.60;99.90;;;;;;5038947;28;20048;-73
2023/03/08 00:27:37;;;;;;;7.18;1.42;;;-0.70;99.90;;;;;;5045052;28;20065;-73
2023/03/08 00:30:05;;;;;;;5.22;1.20;;;-0.60;99.90;;;;;;5044140;28;20052;-71
2023/03/08 00:32:31;;;;;;;3.88;1.00;;;-0.70;99.90;;;;;;5028731;28;20516;-72
2023/03/08 00:34:56;;;;;;;4.90;1.30;;;-0.60;99.90;;;;;;5065073;28;20047;-73
2023/03/08 00:37:22;;;;;;;3.53;1.00;;;-0.20;99.90;;;;;;5043905;28;20032;-72
2023/03/08 00:39:51;;;;;;;4.10;1.63;;;-0.70;99.90;;;;;;5048450;28;20082;-72
2023/03/08 00:42:17;;;;;;;2.72;1.35;;;-0.70;99.90;;;;;;5062740;28;20047;-73
2023/03/08 00:44:43;;;;;;;5.03;1.13;;;-0.70;99.90;;;;;;5068201;28;20044;-74
2023/03/08 00:47:08;;;;;;;6.50;1.92;;;-0.30;99.90;;;;;;5061945;28;20052;-73
2023/03/08 00:49:34;;;;;;;7.75;1.33;;;-0.80;99.90;;;;;;5062968;28;20462;-72
2023/03/08 00:52:00;;;;;;;5.80;1.25;;;-0.80;99.90;;;;;;5073989;28;20044;-73
2023/03/08 00:54:25;;;;;;;5.15;1.23;;;-0.80;99.90;;;;;;5055035;28;20033;-73
2023/03/08 00:56:51;;;;;;;7.85;1.40;;;-0.80;99.90;;;;;;5043503;28;20135;-70
2023/03/08 00:59:17;;;;;;;4.60;1.30;;;-0.80;99.90;;;;;;5044990;28;20048;-72
2023/03/08 01:01:43;;;;;;;7.28;1.00;;;-0.20;99.90;;;;;;5048802;28;20052;-73
2023/03/08 01:04:09;;;;;;;4.90;1.17;;;-0.80;99.90;;;;;;5064334;28;20052;-72
2023/03/08 01:06:34;;;;;;;4.95;1.48;;;-0.70;99.90;;;;;;5042337;28;20413;-73
2023/03/08 01:09:00;;;;;;;4.45;0.90;;;-0.80;99.90;;;;;;5064435;28;20633;-73
2023/03/08 01:11:26;;;;;;;2.88;0.90;;;-0.80;99.90;;;;;;5065234;28;20044;-72
2023/03/08 01:13:53;;;;;;;4.30;1.08;;;-0.80;99.90;;;;;;5030974;28;20052;-73
2023/03/08 01:16:22;;;;;;;2.22;0.70;;;-0.80;99.90;;;;;;5043659;28;20413;-74
2023/03/08 01:18:50;;;;;;;5.80;1.40;;;-0.80;99.90;;;;;;5062684;28;20471;-73
2023/03/08 01:21:16;;;;;;;2.83;0.93;;;-0.80;99.90;;;;;;5044105;28;20032;-72
2023/03/08 01:23:42;;;;;;;4.50;1.17;;;-0.80;99.90;;;;;;5030964;28;20574;-72
2023/03/08 01:26:14;;;;;;;6.05;1.58;;;-0.80;99.90;;;;;;5041614;28;20800;-72
2023/03/08 01:28:40;;;;;;;5.82;1.13;;;-0.80;99.90;;;;;;5059132;28;20625;-73
2023/03/08 01:31:11;;;;;;;4.00;0.82;;;-0.80;99.90;;;;;;5059107;28;20091;-73
2023/03/08 01:33:37;;;;;;;4.30;0.93;;;-0.80;99.90;;;;;;5060513;28;20119;-72
2023/03/08 01:36:09;;;;;;;5.22;0.80;;;-0.90;99.90;;;;;;5043379;28;20058;-73
2023/03/08 01:38:35;;;;;;;4.20;0.80;;;-0.90;99.90;;;;;;5063258;28;20029;-72
2023/03/08 01:41:02;;;;;;;3.50;0.90;;;-0.90;99.90;;;;;;5042501;28;20125;-72
2023/03/08 01:43:30;;;;;;;1.42;0.60;;;-0.70;99.90;;;;;;5061368;28;20068;-72
2023/03/08 01:46:25;;;;;;;1.50;0.60;;;-0.70;99.90;;;;;;5045687;28;20029;-73
2023/03/08 01:48:59;;;;;;;4.80;0.90;;;-0.90;99.90;;;;;;5047456;28;20113;-74
2023/03/08 01:51:41;;;;;;;1.95;0.68;;;-0.90;99.90;;;;;;5043982;28;20501;-72
2023/03/08 01:54:09;;;;;;;;;;;-0.90;99.90;;;;;;5062740;28;20772;-72
2023/03/08 01:56:36;;;;;;;4.40;0.80;;;-0.90;99.90;;;;;;5044025;28;19924;-71
2023/03/08 01:59:02;;;;;;;5.75;0.80;;;-0.90;99.90;;;;;;5049101;28;20544;-72
2023/03/08 02:01:29;;;;;;;2.28;1.23;;;-1.00;99.90;;;;;;5047034;28;20432;-73
2023/03/08 02:03:55;;;;;;;4.53;0.90;;;-1.00;99.90;;;;;;5060753;28;20041;-72
2023/03/08 02:06:22;;;;;;;5.20;0.93;;;-1.00;99.90;;;;;;5061802;28;20052;-72
2023/03/08 02:08:47;;;;;;;4.45;1.00;;;-0.40;99.90;;;;;;5059702;28;20106;-73
2023/03/08 02:11:15;;;;;;;2.83;0.98;;;-0.90;99.90;;;;;;5063480;28;20044;-73
2023/03/08 02:13:41;;;;;;;5.82;1.15;;;-0.90;99.90;;;;;;5039004;28;20044;-73
2023/03/08 02:16:11;;;;;;;2.75;1.00;;;-0.90;99.90;;;;;;5056875;28;20040;-73
2023/03/08 02:18:36;;;;;;;3.45;1.02;;;-0.90;99.90;;;;;;5061570;28;20040;-72
2023/03/08 02:21:02;;;;;;;3.72;0.90;;;-0.90;99.90;;;;;;5048028;28;20047;-73
2023/03/08 02:23:28;;;;;;;4.35;1.00;;;-0.90;99.90;;;;;;5066365;28;20366;-73
2023/03/08 02:26:01;;;;;;;4.03;0.93;;;-0.90;99.90;;;;;;5062191;28;20127;-73
2023/03/08 02:28:28;;;;;;;4.38;0.90;;;-0.90;99.90;;;;;;5043287;28;20102;-73
2023/03/08 02:30:54;;;;;;;5.20;1.00;;;-1.00;99.90;;;;;;5052270;28;20051;-73
2023/03/08 02:33:20;;;;;;;4.55;1.02;;;-1.00;99.90;;;;;;5045948;28;20132;-73
2023/03/08 02:35:46;;;;;;;2.70;0.80;;;-1.00;99.90;;;;;;5055821;28;20043;-71
2023/03/08 02:38:14;;;;;;;5.78;1.98;;;-1.00;99.90;;;;;;5023115;28;20048;-71
2023/03/08 02:40:40;;;;;;;4.30;1.00;;;-1.00;99.90;;;;;;5062349;28;20102;-70
2023/03/08 02:43:06;;;;;;;7.32;1.13;;;-1.00;99.90;;;;;;5049676;28;20045;-72
2023/03/08 02:45:32;;;;;;;4.03;0.88;;;-0.20;99.90;;;;;;5057864;28;20043;-72
2023/03/08 02:48:03;;;;;;;4.53;0.95;;;-1.10;99.90;;;;;;5043077;28;20143;-72
2023/03/08 02:50:30;;;;;;;1.90;0.70;;;-1.10;99.90;;;;;;5045726;28;20501;-72
2023/03/08 02:52:56;;;;;;;2.85;0.98;;;-0.80;99.90;;;;;;5059372;28;20037;-72
2023/03/08 02:55:22;;;;;;;8.02;1.10;;;0.20;99.90;;;;;;5067099;28;20072;-73
2023/03/08 02:57:48;;;;;;;3.63;1.15;;;-0.30;99.90;;;;;;5067610;28;20564;-72
2023/03/08 03:00:14;;;;;;;3.78;0.95;;;-1.10;99.90;;;;;;5031159;28;20045;-72
2023/03/08 03:02:40;;;;;;;3.22;0.85;;;-1.10;99.90;;;;;;5034259;28;20056;-72
2023/03/08 03:05:11;;;;;;;6.22;1.25;;;-1.10;99.90;;;;;;5074258;28;20152;-72
2023/03/08 03:07:38;;;;;;;;;;;-1.10;99.90;;;;;;5057761;28;20058;-72
2023/03/08 03:10:04;;;;;;;9.68;1.20;;;-1.10;99.90;;;;;;5045503;28;20437;-72
2023/03/08 03:12:30;;;;;;;4.63;0.80;;;-1.10;99.90;;;;;;5047761;28;20067;-72
2023/03/08 03:14:56;;;;;;;3.28;1.17;;;-0.60;99.90;;;;;;5048202;28;20036;-72
2023/03/08 03:17:22;;;;;;;3.60;0.80;;;-1.10;99.90;;;;;;5064607;28;20418;-72
2023/03/08 03:19:48;;;;;;;6.28;1.00;;;-1.10;99.90;;;;;;5062294;28;20466;-71
2023/03/08 03:22:13;;;;;;;2.80;0.88;;;-1.10;99.90;;;;;;5050498;28;20048;-71
2023/03/08 03:24:39;;;;;;;4.28;1.27;;;-1.20;99.90;;;;;;5046296;28;20036;-72
2023/03/08 03:27:05;;;;;;;5.22;0.98;;;-1.20;99.90;;;;;;5049238;28;20505;-72
2023/03/08 03:29:31;;;;;;;4.57;1.40;;;-1.20;99.90;;;;;;5044637;28;20523;-72
2023/03/08 03:31:57;;;;;;;2.45;0.75;;;-1.20;99.90;;;;;;5044018;28;20447;-72
2023/03/08 03:34:22;;;;;;;5.57;0.85;;;-1.20;99.90;;;;;;5045270;28;20116;-72
2023/03/08 03:36:48;;;;;;;3.85;0.98;;;-1.20;99.90;;;;;;5070906;28;20040;-73
2023/03/08 03:39:14;;;;;;;2.88;0.90;;;-0.30;99.90;;;;;;5065144;28;20051;-73
2023/03/08 03:41:39;;;;;;;4.43;0.60;;;-1.30;99.90;;;;;;5042732;28;20158;-73
2023/03/08 03:44:05;;;;;;;2.78;0.70;;;-1.10;99.90;;;;;;5045318;28;20697;-72
2023/03/08 03:46:31;;;;;;;2.95;0.73;;;-1.20;99.90;;;;;;5047125;28;20190;-72
2023/03/08 03:48:57;;;;;;;2.85;0.77;;;-1.30;99.90;;;;;;5044488;28;20403;-72
2023/03/08 03:51:23;;;;;;;2.53;0.70;;;-1.10;99.90;;;;;;5067298;28;20173;-70
2023/03/08 03:53:49;;;;;;;1.83;0.80;;;-1.30;99.90;;;;;;5030551;28;20047;-72
2023/03/08 03:56:24;;;;;;;3.95;0.93;;;-1.30;99.90;;;;;;5048348;28;20040;-72
2023/03/08 03:58:50;;;;;;;4.63;0.90;;;-1.30;99.90;;;;;;5057900;28;20048;-72
2023/03/08 04:01:25;;;;;;;3.42;0.70;;;-1.30;99.90;;;;;;5063475;28;20041;-73
2023/03/08 04:03:52;;;;;;;2.55;0.88;;;-1.30;99.90;;;;;;5067109;28;20080;-71
2023/03/08 04:06:27;;;;;;;4.60;0.82;;;-1.40;99.90;;;;;;5028620;28;20048;-71
2023/03/08 04:08:55;;;;;;;4.30;0.82;;;-1.30;99.90;;;;;;5049553;28;20095;-72
2023/03/08 04:11:23;;;;;;;1.92;0.65;;;-1.40;99.90;;;;;;5063476;28;20598;-72
2023/03/08 04:13:49;;;;;;;2.47;1.15;;;-1.40;99.90;;;;;;5056231;28;20533;-72
2023/03/08 04:16:20;;;;;;;2.85;0.80;;;-0.10;99.90;;;;;;5063472;28;20036;-72
2023/03/08 04:18:46;;;;;;;7.78;1.10;;;-1.40;99.90;;;;;;5068205;28;20063;-72
2023/03/08 04:21:13;;;;;;;5.57;1.08;;;-1.40;99.90;;;;;;5071824;28;20050;-72
2023/03/08 04:23:39;;;;;;;3.67;1.30;;;-1.40;99.90;;;;;;5045969;28;20086;-71
2023/03/08 04:26:06;;;;;;;4.20;1.48;;;-1.40;99.90;;;;;;5050582;28;20475;-72
2023/03/08 04:28:32;;;;;;;4.00;1.50;;;-1.40;99.90;;;;;;5070175;28;20049;-72
2023/03/08 04:30:59;;;;;;;7.07;2.10;;;-1.40;99.90;;;;;;5074286;28;20113;-72
2023/03/08 04:33:25;;;;;;;6.82;2.08;;;-1.40;99.90;;;;;;5059053;28;20052;-72
2023/03/08 04:35:51;;;;;;;4.32;2.08;;;-1.40;99.90;;;;;;5050756;28;20114;-72
2023/03/08 04:38:17;;;;;;;6.28;1.95;;;-1.40;99.90;;;;;;5045493;28;20032;-72
2023/03/08 04:41:05;;;;;;;7.03;1.80;;;-1.40;99.90;;;;;;5068252;28;20079;-71
2023/03/08 04:43:34;;;;;;;5.68;2.42;;;-1.40;99.90;;;;;;5065575;28;20044;-72
2023/03/08 04:46:03;;;;;;;3.25;1.85;;;-0.50;99.90;;;;;;5033462;28;20044;-72
2023/03/08 04:48:29;;;;;;;4.55;1.30;;;-1.50;99.90;;;;;;5047559;28;20044;-72
2023/03/08 04:50:57;;;;;;;4.10;1.10;;;-1.40;99.90;;;;;;5043896;28;20067;-72
2023/03/08 04:53:23;;;;;;;5.30;1.30;;;-1.10;99.90;;;;;;5047479;28;20043;-73
2023/03/08 04:55:50;;;;;;;3.75;1.05;;;-1.40;99.90;;;;;;5063531;28;20037;-73
2023/03/08 04:58:16;;;;;;;2.35;1.00;;;-1.50;99.90;;;;;;5035063;28;20124;-72
2023/03/08 05:00:42;;;;;;;2.30;1.10;;;-1.30;99.90;;;;;;5032648;28;20126;-71
2023/03/08 05:03:08;;;;;;;2.83;0.95;;;-1.60;99.90;;;;;;5062415;28;20136;-72
2023/03/08 05:05:37;;;;;;;2.22;0.90;;;-0.30;99.90;;;;;;5039535;28;20690;-72
2023/03/08 05:08:04;;;;;;;2.38;0.70;;;-1.50;99.90;;;;;;5063559;28;20613;-72
2023/03/08 05:10:30;;;;;;;5.20;0.77;;;-1.50;99.90;;;;;;5042719;28;20527;-71
2023/03/08 05:12:56;;;;;;;3.90;1.02;;;-1.50;99.90;;;;;;5043747;28;20053;-71
2023/03/08 05:15:22;;;;;;;2.05;0.60;;;-1.50;99.90;;;;;;5071303;28;20409;-71
2023/03/08 05:17:49;;;;;;;2.40;0.80;;;-1.50;99.90;;;;;;5046415;28;20047;-72
2023/03/08 05:20:15;;;;;;;3.97;0.75;;;-1.50;99.90;;;;;;5061147;28;20081;-72
2023/03/08 05:22:41;;;;;;;2.55;0.63;;;-1.50;99.90;;;;;;5063407;28;20127;-72
2023/03/08 05:25:07;;;;;;;4.38;1.15;;;-1.50;99.90;;;;;;5053845;28;20059;-72
2023/03/08 05:27:34;;;;;;;4.03;0.60;;;-1.40;99.90;;;;;;5028344;28;20059;-71
2023/03/08 05:30:00;;;;;;;2.53;0.80;;;-1.50;99.90;;;;;;5062799;28;20719;-72
2023/03/08 05:32:26;;;;;;;3.35;0.70;;;-1.00;99.90;;;;;;5044364;28;20100;-72
2023/03/08 05:34:52;;;;;;;3.03;0.80;;;-1.50;99.90;;;;;;5042831;28;20040;-72
2023/03/08 05:37:18;;;;;;;3.78;0.90;;;-1.40;99.90;;;;;;5051036;28;20033;-73
2023/03/08 05:39:44;;;;;;;2.58;0.82;;;-0.90;99.90;;;;;;5061361;28;20037;-73
2023/03/08 05:42:11;;;;;;;4.10;0.80;;;-1.40;99.90;;;;;;5048432;28;20040;-73
2023/03/08 05:44:37;;;;;;;4.22;0.90;;;-1.60;99.90;;;;;;5026103;28;20045;-71
2023/03/08 05:47:03;;;;;;;4.43;1.00;;;-1.60;99.90;;;;;;5063320;28;20042;-71
2023/03/08 05:49:29;;;;;;;4.70;1.05;;;-1.60;99.90;;;;;;5040814;28;20063;-72
2023/03/08 05:51:55;;;;;;;5.22;1.48;;;-1.60;99.90;;;;;;5046318;28;20075;-71
2023/03/08 05:54:21;;;;;;;3.30;1.02;;;-1.60;99.90;;;;;;5042846;28;20040;-72
2023/03/08 05:56:46;;;;;;;5.82;1.20;;;-1.60;99.90;;;;;;5042502;28;20044;-73
2023/03/08 05:59:12;;;;;;;4.10;1.10;;;-1.60;99.90;;;;;;5059333;28;20062;-72
2023/03/08 06:01:38;;;;;;;4.45;1.33;;;-1.60;99.90;;;;;;5018632;28;20056;-72
2023/03/08 06:04:04;;;;;;;6.68;1.00;;;-1.40;99.90;;;;;;5039870;28;20055;-72
2023/03/08 06:06:30;;;;;;;4.93;1.60;;;-1.70;99.90;;;;;;5059777;28;21353;-72
2023/03/08 06:08:57;;;;;;;11.18;1.40;;;-1.50;99.90;;;;;;5063444;28;20047;-73
2023/03/08 06:11:23;;;;;;;4.85;1.10;;;-1.70;99.90;;;;;;5043149;28;20041;-73
2023/03/08 06:13:49;;;;;;;6.13;1.20;;;-1.60;99.90;;;;;;5040777;28;20045;-72
2023/03/08 06:16:14;;;;;;;3.08;1.17;;;-1.70;99.90;;;;;;5038093;28;20106;-72
2023/03/08 06:18:41;;;;;;;2.17;0.80;;;-1.70;99.90;;;;;;5036041;28;20056;-72
2023/03/08 06:21:09;;;;;;;3.03;1.02;;;-1.70;99.90;;;;;;5042602;28;20069;-73
2023/03/08 06:23:37;;;;;;;2.78;0.93;;;-1.70;99.90;;;;;;5066236;28;20076;-72
2023/03/08 06:26:05;;;;;;;4.22;1.13;;;-1.60;99.90;;;;;;5035038;28;20154;-72
2023/03/08 06:28:31;;;;;;;2.60;1.15;;;-1.60;99.90;;;;;;5048814;28;20642;-71
2023/03/08 06:30:57;;;;;;;3.10;0.95;;;-1.60;99.90;;;;;;5035066;28;20072;-72
2023/03/08 06:33:26;;;;;;;4.45;1.05;;;-1.60;99.90;;;;;;5034150;28;21789;-72
2023/03/08 06:36:00;;;;;;;5.32;1.20;;;-1.70;99.90;;;;;;5035372;28;20605;-72
2023/03/08 06:38:27;;;;;;;4.88;1.20;;;-1.60;99.90;;;;;;5032101;28;20044;-71
2023/03/08 06:40:53;;;;;;;6.07;1.30;;;-2.20;99.90;;;;;;5045777;28;20039;-71
2023/03/08 06:43:20;;;;;;;6.15;1.92;;;-1.40;99.90;;;;;;5028065;28;20452;-71
2023/03/08 06:45:46;;;;;;;5.18;1.15;;;-1.10;99.90;;;;;;5011140;28;20050;-70
2023/03/08 06:48:12;;;;;;;6.38;1.65;;;-1.10;99.90;;;;;;5051866;28;20446;-73
2023/03/08 06:50:38;;;;;;;5.55;1.65;;;-1.60;99.90;;;;;;5055217;28;20041;-73
2023/03/08 06:53:05;;;;;;;6.75;1.77;;;-1.60;99.90;;;;;;5036937;28;20406;-72
2023/03/08 06:55:30;;;;;;;4.43;1.48;;;-1.60;99.90;;;;;;5031595;28;20348;-71
2023/03/08 06:57:56;;;;;;;7.40;1.70;;;-0.40;99.90;;;;;;5030386;28;20041;-71
2023/03/08 07:00:22;;;;;;;5.50;1.70;;;-1.60;99.90;;;;;;5044843;28;20356;-72
2023/03/08 07:02:48;;;;;;;6.95;1.85;;;-1.60;99.90;;;;;;5044737;28;20045;-71
2023/03/08 07:05:17;;;;;;;6.93;1.60;;;-1.60;99.90;;;;;;5027885;28;20186;-71
2023/03/08 07:07:43;;;;;;;4.63;1.70;;;-1.60;99.90;;;;;;5046704;28;20036;-75
2023/03/08 07:10:10;;;;;;;7.20;1.83;;;-1.20;99.90;;;;;;5040968;28;20079;-72
2023/03/08 07:12:39;;;;;;;7.22;2.28;;;-1.60;99.90;;;;;;5031195;28;20048;-72
2023/03/08 07:15:08;;;;;;;5.78;1.85;;;-1.30;99.90;;;;;;5027927;28;20049;-74
2023/03/08 07:17:34;;;;;;;6.38;2.78;;;-1.50;99.90;;;;;;5027339;28;20103;-72
2023/03/08 07:20:04;;;;;;;7.18;2.45;;;-1.50;99.90;;;;;;5042310;28;20051;-72
2023/03/08 07:22:30;;;;;;;7.90;2.20;;;-1.50;99.90;;;;;;5024610;28;20098;-72
2023/03/08 07:24:56;;;;;;;8.48;2.78;;;-1.40;99.90;;;;;;5024726;28;20182;-71
2023/03/08 07:27:22;;;;;;;8.32;2.75;;;-1.40;99.90;;;;;;5008954;28;20417;-75
2023/03/08 07:29:48;;;;;;;12.40;2.90;;;-1.40;99.90;;;;;;5026391;28;20149;-75
2023/03/08 07:32:14;;;;;;;7.63;2.53;;;-1.30;99.90;;;;;;5043374;28;20055;-72
2023/03/08 07:34:40;;;;;;;5.97;2.42;;;-1.30;99.90;;;;;;5045066;28;20044;-71
2023/03/08 07:37:11;;;;;;;10.88;2.90;;;-1.30;99.90;;;;;;5029283;28;20045;-72
2023/03/08 07:39:36;;;;;;;7.90;2.17;;;-1.30;99.90;;;;;;5038898;28;20051;-71
2023/03/08 07:42:02;;;;;;;7.05;2.80;;;-1.20;99.90;;;;;;5063742;28;20040;-73
2023/03/08 07:44:28;;;;;;;7.93;2.60;;;-1.20;99.90;;;;;;5049546;28;20524;-72
2023/03/08 07:46:53;;;;;;;7.13;2.28;;;-1.20;99.90;;;;;;5049346;28;20145;-72
2023/03/08 07:49:19;;;;;;;7.85;2.47;;;-1.10;99.90;;;;;;5053692;28;20041;-71
2023/03/08 07:51:45;;;;;;;11.77;2.90;;;-1.10;99.90;;;;;;5044398;28;20072;-72
2023/03/08 07:54:11;;;;;;;8.15;3.10;;;-1.00;99.90;;;;;;5042817;28;20322;-72
2023/03/08 07:56:37;;;;;;;8.32;3.08;;;-1.10;99.90;;;;;;5037648;28;20049;-72
2023/03/08 07:59:03;;;;;;;11.05;3.17;;;-0.90;99.90;;;;;;5043514;28;20052;-72
2023/03/08 08:01:29;;;;;;;9.65;3.80;;;-1.00;99.90;;;;;;5054323;28;20044;-73
2023/03/08 08:03:54;;;;;;;9.80;4.07;;;-0.90;99.90;;;;;;5042995;28;20405;-72
2023/03/08 08:06:20;;;;;;;14.85;4.43;;;-0.90;99.90;;;;;;5036814;28;20382;-72
2023/03/08 08:08:46;;;;;;;9.77;4.28;;;-0.80;99.90;;;;;;5040389;28;20036;-74
2023/03/08 08:11:14;;;;;;;9.98;4.70;;;-0.50;99.90;;;;;;5044315;28;20044;-74
2023/03/08 08:13:40;;;;;;;12.70;4.63;;;-0.70;99.90;;;;;;5042750;28;20041;-73
2023/03/08 08:16:06;;;;;;;10.43;5.07;;;-0.70;99.90;;;;;;5045181;28;20051;-73
2023/03/08 08:18:33;;;;;;;11.48;5.15;;;-0.60;99.90;;;;;;5026724;28;20697;-73
2023/03/08 08:21:04;;;;;;;8.73;4.72;;;-0.60;99.90;;;;;;5025996;28;20041;-73
2023/03/08 08:23:29;;;;;;;9.52;5.35;;;-0.50;99.90;;;;;;5066255;28;20052;-72
2023/03/08 08:25:55;;;;;;;17.10;5.63;;;-0.50;99.90;;;;;;5026022;28;20641;-72
2023/03/08 08:28:23;;;;;;;12.13;5.60;;;-0.50;99.90;;;;;;5051563;28;20529;-72
2023/03/08 08:31:00;;;;;;;9.98;4.85;;;-0.40;99.90;;;;;;5035739;28;20162;-72
2023/03/08 08:33:28;;;;;;;11.05;5.15;;;-0.40;99.90;;;;;;5044542;28;20128;-73
2023/03/08 08:35:54;;;;;;;10.45;5.10;;;-0.30;99.90;;;;;;5049617;28;20047;-73
2023/03/08 08:38:19;;;;;;;11.40;4.68;;;-0.30;99.90;;;;;;5047235;28;20049;-74
2023/03/08 08:40:45;;;;;;;11.63;4.60;;;-0.30;99.90;;;;;;5046834;28;20037;-73
2023/03/08 08:43:11;;;;;;;11.43;5.55;;;-0.20;99.90;;;;;;5025155;28;20045;-75
2023/03/08 08:45:45;;;;;;;13.00;5.50;;;0.60;99.90;;;;;;5044052;28;20163;-74
2023/03/08 08:48:12;;;;;;;13.00;5.20;;;-0.10;99.90;;;;;;5045776;28;20144;-74
2023/03/08 08:50:39;;;;;;;16.45;5.70;;;0.00;99.90;;;;;;5043735;28;20056;-72
2023/03/08 08:53:05;;;;;;;13.25;5.15;;;0.00;99.90;;;;;;5045299;28;20146;-73
2023/03/08 08:55:31;;;;;;;9.90;4.90;;;0.00;99.90;;;;;;5041575;28;20044;-75
2023/03/08 08:57:57;;;;;;;9.05;5.30;;;0.10;99.90;;;;;;5044368;28;20051;-74
2023/03/08 09:00:23;;;;;;;7.88;4.63;;;0.10;99.90;;;;;;5043846;28;20493;-75
2023/03/08 09:02:48;;;;;;;9.63;4.68;;;0.20;99.90;;;;;;5029380;28;20140;-74
2023/03/08 09:05:14;;;;;;;7.75;4.13;;;0.20;99.90;;;;;;5034879;28;20452;-75
2023/03/08 09:07:40;;;;;;;12.57;4.35;;;0.20;99.90;;;;;;5051179;28;20060;-74
2023/03/08 09:10:07;;;;;;;11.57;4.68;;;0.50;99.90;;;;;;5022000;28;20111;-74
2023/03/08 09:12:32;;;;;;;11.00;4.72;;;0.30;99.90;;;;;;5040041;28;20045;-74
2023/03/08 09:14:58;;;;;;;10.23;4.20;;;0.40;99.90;;;;;;5033420;28;20041;-75
2023/03/08 09:17:24;;;;;;;8.05;4.00;;;0.60;99.90;;;;;;5021411;28;20201;-74
2023/03/08 09:19:50;;;;;;;9.27;4.22;;;1.20;99.90;;;;;;5040291;28;20127;-74
2023/03/08 09:22:17;;;;;;;9.30;3.90;;;0.50;99.90;;;;;;5034289;28;20551;-73
2023/03/08 09:24:44;;;;;;;6.28;3.30;;;0.60;99.90;;;;;;5032830;28;20045;-74
2023/03/08 09:27:10;;;;;;;6.97;4.00;;;0.60;99.90;;;;;;5015173;28;20437;-74
2023/03/08 09:29:37;;;;;;;10.73;3.70;;;0.70;99.90;;;;;;5028778;28;20087;-74
2023/03/08 09:32:04;;;;;;;9.27;3.38;;;0.70;99.90;;;;;;5021993;28;20047;-73
2023/03/08 09:34:29;;;;;;;8.88;3.97;;;0.70;99.90;;;;;;5049191;28;20032;-73
2023/03/08 09:36:55;;;;;;;8.00;4.63;;;1.10;99.90;;;;;;5059181;28;20449;-73
2023/03/08 09:39:21;;;;;;;8.35;4.32;;;0.80;99.90;;;;;;5026261;28;20048;-74
2023/03/08 09:41:51;;;;;;;9.48;3.83;;;0.90;99.90;;;;;;5046426;28;20728;-74
2023/03/08 09:44:51;;;;;;;9.75;3.15;;;1.00;99.90;;;;;;5045084;28;20398;-74
2023/03/08 09:47:29;;;;;;;9.13;3.20;;;1.10;99.90;;;;;;5044717;28;20052;-75
2023/03/08 09:50:05;;;;;;;8.70;3.28;;;1.10;99.90;;;;;;5059605;28;20049;-73
2023/03/08 09:52:39;;;;;;;8.02;3.38;;;1.20;99.90;;;;;;5043554;28;20494;-73
2023/03/08 09:55:15;;;;;;;6.32;2.85;;;1.20;99.90;;;;;;5043076;28;20476;-74
2023/03/08 09:57:51;;;;;;;8.02;3.25;;;1.30;99.90;;;;;;5058746;28;20077;-73
2023/03/08 10:00:27;;;;;;;6.63;3.10;;;1.30;99.90;;;;;;5045292;28;20055;-73
2023/03/08 10:03:05;;;;;;;7.35;2.97;;;1.40;99.90;;;;;;5061839;28;20051;-72
2023/03/08 10:05:46;;;;;;;4.53;1.77;;;1.50;99.90;;;;;;5047818;28;20071;-73
2023/03/08 10:08:44;;;;;;;6.20;2.35;;;1.50;99.90;;;;;;5047868;28;20816;-72
2023/03/08 10:11:40;;;;;;;6.10;2.15;;;1.60;99.90;;;;;;5023857;28;20393;-74
2023/03/08 10:14:27;;;;;;;4.60;2.30;;;1.70;99.90;;;;;;5023175;28;20058;-72
2023/03/08 10:16:58;;;;;;;6.78;2.20;;;1.70;99.90;;;;;;5061514;28;20561;-73
2023/03/08 10:19:36;;;;;;;7.03;2.70;;;1.90;99.90;;;;;;5044975;28;20044;-72
2023/03/08 10:22:27;;;;;;;7.80;2.63;;;1.80;99.90;;;;;;5060921;28;20077;-73
2023/03/08 10:25:18;;;;;;;7.80;3.08;;;1.80;99.90;;;;;;5058745;28;20113;-74
2023/03/08 10:27:47;;;;;;;5.20;2.25;;;1.90;99.90;;;;;;5048417;28;20056;-73
2023/03/08 10:30:15;;;;;;;7.80;2.65;;;2.20;99.90;;;;;;5027538;28;20048;-73
2023/03/08 10:32:45;;;;;;;7.43;2.33;;;2.00;99.90;;;;;;5041041;28;20079;-72
2023/03/08 10:35:11;;;;;;;6.28;2.20;;;2.00;99.90;;;;;;5048334;28;20112;-72
2023/03/08 10:37:37;;;;;;;8.63;2.40;;;2.10;99.90;;;;;;5065526;28;20123;-73
2023/03/08 10:40:08;;;;;;;9.95;2.85;;;2.10;99.90;;;;;;5060607;28;20072;-72
2023/03/08 10:42:37;;;;;;;5.15;2.00;;;2.20;99.90;;;;;;5023147;28;20055;-73
2023/03/08 10:45:13;;;;;;;6.43;1.90;;;2.00;99.90;;;;;;5026263;28;20048;-73
2023/03/08 10:47:39;;;;;;;5.43;1.52;;;2.30;99.90;;;;;;5059101;28;20575;-73
2023/03/08 10:50:16;;;;;;;7.57;1.90;;;2.30;99.90;;;;;;5059948;28;20601;-72
2023/03/08 10:52:44;;;;;;;4.13;1.70;;;2.40;99.90;;;;;;5046557;28;20155;-73
2023/03/08 10:55:16;;;;;;;6.32;1.35;;;2.40;99.90;;;;;;5063481;28;20044;-73
2023/03/08 10:58:07;;;;;;;3.38;1.10;;;2.50;99.90;;;;;;5044558;28;20543;-73
2023/03/08 11:00:35;;;;;;;4.78;1.70;;;3.10;99.90;;;;;;5060730;28;20060;-72
2023/03/08 11:03:17;;;;;;;3.55;1.17;;;2.60;99.90;;;;;;5026350;28;20048;-72
2023/03/08 11:06:02;;;;;;;4.22;1.48;;;2.60;99.90;;;;;;5052777;28;20437;-73
2023/03/08 11:08:39;;;;;;;3.33;1.00;;;2.60;99.90;;;;;;5041761;28;20075;-74
2023/03/08 11:11:13;;;;;;;2.80;1.10;;;2.70;99.90;;;;;;5051508;28;20059;-74
2023/03/08 11:13:46;;;;;;;5.22;1.10;;;2.80;99.90;;;;;;5037212;28;20492;-73
2023/03/08 11:16:33;;;;;;;3.28;0.88;;;2.80;99.90;;;;;;5054178;28;20056;-74
2023/03/08 11:19:05;;;;;;;3.97;1.17;;;2.80;99.90;;;;;;5042205;28;20044;-73
2023/03/08 11:22:10;;;;;;;4.88;0.95;;;3.20;99.90;;;;;;5041363;28;20411;-73
2023/03/08 11:25:09;;;;;;;3.75;1.20;;;2.90;99.90;;;;;;5032273;28;20040;-73
2023/03/08 11:27:54;;;;;;;4.32;1.13;;;3.00;99.90;;;;;;5039774;28;20052;-74
2023/03/08 11:30:48;;;;;;;5.03;1.05;;;3.00;99.90;;;;;;5053155;28;20048;-74
2023/03/08 11:33:23;;;;;;;2.85;1.05;;;3.00;99.90;;;;;;5049189;28;20049;-74
2023/03/08 11:36:21;;;;;;;4.72;1.20;;;3.00;99.90;;;;;;5028253;28;20756;-73
2023/03/08 11:38:57;;;;;;;3.97;1.17;;;3.10;99.90;;;;;;4972770;28;20062;-73
2023/03/08 11:41:44;;;;;;;3.83;1.30;;;3.20;99.90;;;;;;5031153;28;20040;-73
2023/03/08 11:44:29;;;;;;;3.50;1.48;;;3.20;99.90;;;;;;5049364;28;20131;-73
2023/03/08 11:47:07;;;;;;;5.60;1.40;;;3.20;99.90;;;;;;5052525;28;20040;-74
2023/03/08 11:49:33;;;;;;;6.65;1.40;;;3.30;99.90;;;;;;5059145;28;20159;-73
2023/03/08 11:52:03;;;;;;;6.50;2.13;;;3.90;99.90;;;;;;5060330;28;20119;-74
2023/03/08 11:54:53;;;;;;;5.53;1.48;;;3.30;99.90;;;;;;5058971;28;20086;-74
2023/03/08 11:57:19;;;;;;;8.75;1.33;;;3.40;99.90;;;;;;5035524;28;20040;-74
2023/03/08 12:00:11;;;;;;;3.63;1.00;;;4.10;99.90;;;;;;5039571;28;20049;-74
2023/03/08 12:02:42;;;;;;;4.97;1.15;;;3.70;99.90;;;;;;5057460;28;20044;-73
2023/03/08 12:05:31;;;;;;;5.45;1.25;;;3.40;99.90;;;;;;5041935;28;20076;-74
2023/03/08 12:08:17;;;;;;;4.15;1.02;;;3.40;99.90;;;;;;5036734;28;20045;-74
2023/03/08 12:11:13;;;;;;;6.68;1.50;;;3.50;99.90;;;;;;5028376;28;20049;-74
2023/03/08 12:13:53;;;;;;;4.55;1.10;;;3.50;99.90;;;;;;5054027;28;20048;-74
2023/03/08 12:16:27;;;;;;;2.63;0.80;;;3.50;99.90;;;;;;5039223;28;20036;-75
2023/03/08 12:19:16;;;;;;;2.67;0.80;;;2.90;99.90;;;;;;5056974;28;20329;-74
2023/03/08 12:22:02;;;;;;;2.92;0.80;;;3.60;99.90;;;;;;5046760;28;20040;-74
2023/03/08 12:24:57;;;;;;;5.32;0.98;;;3.60;99.90;;;;;;5050819;28;20056;-73
2023/03/08 12:27:53;;;;;;;8.80;0.90;;;3.20;99.90;;;;;;5059341;28;20088;-73
2023/03/08 12:30:32;;;;;;;2.85;0.70;;;3.60;99.90;;;;;;5042964;28;20093;-73
2023/03/08 12:33:02;;;;;;;5.40;1.00;;;3.60;99.90;;;;;;5045921;28;20493;-74
2023/03/08 12:35:33;;;;;;;3.35;1.63;;;3.60;99.90;;;;;;5024524;28;20044;-73
2023/03/08 12:38:25;;;;;;;3.33;1.00;;;3.60;99.90;;;;;;5058113;28;20040;-73
2023/03/08 12:40:53;;;;;;;2.67;0.90;;;3.70;99.90;;;;;;5060732;28;20288;-73
2023/03/08 12:43:19;;;;;;;2.55;0.88;;;3.60;99.90;;;;;;5037098;28;20044;-73
2023/03/08 12:46:08;;;;;;;3.40;0.90;;;3.70;99.90;;;;;;5045251;28;20051;-73
2023/03/08 12:48:45;;;;;;;5.50;0.80;;;3.70;99.90;;;;;;5040910;28;20051;-73
2023/03/08 12:51:11;;;;;;;4.63;1.05;;;3.70;99.90;;;;;;5058934;28;20096;-74
2023/03/08 12:53:49;;;;;;;5.90;1.20;;;3.70;99.90;;;;;;5043436;28;20646;-74
2023/03/08 12:56:27;;;;;;;4.70;1.20;;;3.80;99.90;;;;;;5053379;28;20679;-74
2023/03/08 12:58:56;;;;;;;8.05;1.42;;;4.00;99.90;;;;;;5037313;28;20048;-74
2023/03/08 13:01:36;;;;;;;5.90;1.30;;;3.90;99.90;;;;;;5026393;28;20106;-73
2023/03/08 13:04:05;;;;;;;3.28;1.50;;;4.00;99.90;;;;;;5055703;28;20105;-74